LSZALSME

Guest
Details From LSZA - Lugano
To LSME - Emmen
Flight Number -
Tags generated
Created
Modified
Stats Distance 70 nm / 130 km
Max Altitude 6,700 ft / 2,042 m
Waypoints 3
Social Downloads 0
Likes 0
Share

Download

Looking for another format? Having issues loading an existing format? Contact us
Advertisement - Login to hide

Notes

Basic altitude profile: - Ascent Rate: 600ft/min - Ascent Speed: 80kts - Cruise Altitude: 15000ft - Cruise Speed: 120kts - Descent Rate: 700ft/min - Descent Speed: 80kts Options: - Use NATs: yes - Use PACOTS: yes - Use low airways: yes - Use high airways: no

Route

LSZA SOSON LSME

ID Type Via Altitude (ft/m) Position (lat/lon) Dist (leg/tot) Name
O LSZA APT - 0 / 0 46.00428 / 8.91058 - / 0 nm Lugano
SOSON FIX - 6,700 / 2,042 46.60667 / 8.59417 38 / 38 nm
O LSME APT - 0 / 0 47.09237 / 8.30512 31 / 69 nm Emmen

Altitude Profile

Advertisement - Login to hide

LSZA

Details ICAO LSZA (LUG)
Name Lugano
Region Switzerland
Timezone Europe/Zurich (UTC+2.0)
Stats Elevation 915 ft / 279 m (AMSL)
Location 46.004300° 8.910580°
Runways 1
Magnetic Variation 2.823° E

METAR

LSZA 080720Z AUTO VRB02KT 9999 BKN080 14/01 Q1021

Decode

TAF

Not found

Departure Runways

ID Width Length Bearing (true/mag) Surface Threshold Overrun Markings Lighting
01 98 ft / 30 m 4,415 ft / 1,346 m 18.79° / 15.96° CONCRETE 358 ft / 109 m 16 ft / 5 m PREC-APP CENTERLINE EDGE THRESHOLD SALS REIL-UNI
19 98 ft / 30 m 4,415 ft / 1,346 m 198.79° / 195.97° CONCRETE 673 ft / 205 m 0 ft / 0 m APP CENTERLINE EDGE THRESHOLD SALS REIL-UNI

LSME

Details ICAO LSME (EML)
Name Emmen
Region Switzerland
Timezone Europe/Zurich (UTC+2.0)
Stats Elevation 1,400 ft / 427 m (AMSL)
Location 47.092300° 8.305070°
Runways 1
Magnetic Variation 2.695° E

METAR

LSME 080650Z AUTO 00000KT 9999NDV NCD 07/04 Q1020 RMK

Decode

TAF

Not found

Destination Runways

ID Width Length Bearing (true/mag) Surface Threshold Overrun Markings Lighting
04 130 ft / 40 m 8,265 ft / 2,519 m 37.58° / 34.88° ASPHALT 427 ft / 130 m 797 ft / 243 m VISUAL EDGE THRESHOLD ALSF-I REIL-OMNI
22 130 ft / 40 m 8,265 ft / 2,519 m 217.59° / 214.90° ASPHALT 591 ft / 180 m 748 ft / 228 m VISUAL EDGE THRESHOLD ALSF-II TDZ REIL-OMNI

Approach Navaids

Runway Type Ident Frequency Range Bearing (true/mag) Slope Elevation
22 DME IEM 110.35 MHz 18 nm / 33 km - - 1,406 ft / 429 m (AMSL)
22 LOC-ILS IEM 110.35 MHz 18 nm / 33 km 217.59° / 214.89 ° - 1,400 ft / 427 m (AMSL)
22 GS IEM 110.35 MHz 10 nm / 19 km 217.59° / 214.89 ° 4.00° 1,400 ft / 427 m (AMSL)

Popular Alternatives